createdAt,value
2023-04-09T00:00:49.924Z,62.8571
2023-04-09T00:01:50.028Z,62.9286
2023-04-09T00:02:50.054Z,62.9286
2023-04-09T00:03:50.143Z,63
2023-04-09T00:04:50.191Z,63
2023-04-09T00:05:50.119Z,63
2023-04-09T00:06:50.163Z,63
2023-04-09T00:07:50.199Z,63
2023-04-09T00:08:50.603Z,63
2023-04-09T00:09:50.295Z,63.0714
2023-04-09T00:10:50.326Z,63.0714
2023-04-09T00:11:50.387Z,63.1429
2023-04-09T00:12:50.400Z,63.2143
2023-04-09T00:13:50.444Z,63.2857
2023-04-09T00:14:50.493Z,63.3571
2023-04-09T00:15:50.535Z,63.4286
2023-04-09T00:16:50.564Z,63.4286
2023-04-09T00:17:50.719Z,63.4286
2023-04-09T00:18:51.011Z,63.4286
2023-04-09T00:19:50.706Z,63.2857
2023-04-09T00:20:50.733Z,63.3571
2023-04-09T00:21:50.760Z,63.6429
2023-04-09T00:22:50.796Z,63.7857
2023-04-09T00:23:50.840Z,63.8571
2023-04-09T00:24:50.883Z,63.7857
2023-04-09T00:25:50.923Z,63.7143
2023-04-09T00:26:50.955Z,63.5714
2023-04-09T00:27:50.995Z,63.4286
2023-04-09T00:28:51.222Z,63.2143
2023-04-09T00:29:51.074Z,63.0714
2023-04-09T00:30:51.121Z,63.0714
2023-04-09T00:31:51.202Z,63
2023-04-09T00:32:51.228Z,63
2023-04-09T00:33:51.221Z,63
2023-04-09T00:34:51.274Z,62.8571
2023-04-09T00:35:51.332Z,62.7857
2023-04-09T00:36:51.344Z,62.8571
2023-04-09T00:37:51.392Z,62.9286
2023-04-09T00:38:51.857Z,62.9286
2023-04-09T00:39:51.479Z,62.7857
2023-04-09T00:40:51.505Z,62.7143
2023-04-09T00:41:51.533Z,62.6429
2023-04-09T00:42:51.597Z,62.5714
2023-04-09T00:43:51.619Z,62.5
2023-04-09T00:44:51.654Z,62.5
2023-04-09T00:45:51.724Z,62.5714
2023-04-09T00:46:51.721Z,62.5714
2023-04-09T00:47:51.804Z,62.5714
2023-04-09T00:48:52.089Z,62.5
2023-04-09T00:49:51.838Z,62.5
2023-04-09T00:50:51.886Z,62.4286
2023-04-09T00:51:51.928Z,62.4286
2023-04-09T00:52:51.952Z,62.3571
2023-04-09T00:53:51.989Z,62.2857
2023-04-09T00:54:52.028Z,62.3571
2023-04-09T00:55:52.061Z,62.3571
2023-04-09T00:56:52.103Z,62.5714
2023-04-09T00:57:52.140Z,62.7143
2023-04-09T00:58:52.471Z,62.7857
2023-04-09T00:59:52.213Z,62.7857
2023-04-09T01:00:52.358Z,62.7857
2023-04-09T01:01:52.333Z,62.8571
2023-04-09T01:02:52.390Z,62.7857
2023-04-09T01:03:52.398Z,62.7857
2023-04-09T01:04:52.401Z,62.8571
2023-04-09T01:05:52.449Z,63
2023-04-09T01:06:52.481Z,63.2857
2023-04-09T01:07:52.528Z,63.2857
2023-04-09T01:08:52.831Z,63.3571
2023-04-09T01:09:52.603Z,63.3571
2023-04-09T01:10:52.640Z,63.4286
2023-04-09T01:11:52.677Z,63.4286
2023-04-09T01:12:52.715Z,63.4286
2023-04-09T01:13:52.753Z,63.5
2023-04-09T01:14:52.804Z,63.5
2023-04-09T01:15:52.827Z,63.5
2023-04-09T01:16:52.932Z,63.5
2023-04-09T01:17:52.951Z,63.4286
2023-04-09T01:18:53.136Z,63.3571
2023-04-09T01:19:52.972Z,63.3571
2023-04-09T01:20:53.007Z,63.3571
2023-04-09T01:21:53.044Z,63.2857
2023-04-09T01:22:53.088Z,63.4286
2023-04-09T01:23:53.132Z,63.5
2023-04-09T01:24:53.165Z,63.6429
2023-04-09T01:25:53.203Z,63.7143
2023-04-09T01:26:53.244Z,63.7857
2023-04-09T01:27:53.285Z,63.7857
2023-04-09T01:28:53.644Z,63.7857
2023-04-09T01:29:53.418Z,63.8571
2023-04-09T01:30:53.441Z,63.9286
2023-04-09T01:31:53.433Z,64
2023-04-09T01:32:53.514Z,64.0714
2023-04-09T01:33:53.515Z,64.0714
2023-04-09T01:34:53.547Z,63.9286
2023-04-09T01:35:53.610Z,63.8571
2023-04-09T01:36:53.636Z,64
2023-04-09T01:37:53.673Z,64.0714
2023-04-09T01:38:54.125Z,64.0714
2023-04-09T01:39:53.765Z,64.0714
2023-04-09T01:40:53.803Z,63.9286
2023-04-09T01:41:53.847Z,63.8571
2023-04-09T01:42:53.881Z,63.7857
2023-04-09T01:43:53.936Z,63.7857
2023-04-09T01:44:53.971Z,63.8571
2023-04-09T01:45:54.042Z,63.7857
2023-04-09T01:46:54.051Z,63.7857
2023-04-09T01:47:54.218Z,63.9286
2023-04-09T01:48:54.453Z,64.0714
2023-04-09T01:49:54.162Z,64.2143
2023-04-09T01:50:54.199Z,64.3571
2023-04-09T01:51:54.246Z,64.4286
2023-04-09T01:52:54.282Z,64.5714
2023-04-09T01:53:54.321Z,64.7143
2023-04-09T01:54:54.358Z,64.7143
2023-04-09T01:55:54.393Z,64.7857
2023-04-09T01:56:54.435Z,64.6429
2023-04-09T01:57:54.467Z,64.5714
2023-04-09T01:58:54.781Z,64.5714
2023-04-09T01:59:54.541Z,64.5
2023-04-09T02:00:54.588Z,64.4286
2023-04-09T02:01:54.860Z,64.4286
2023-04-09T02:02:54.924Z,64.2857
2023-04-09T02:03:54.908Z,64.2857
2023-04-09T02:04:54.764Z,64.2143
2023-04-09T02:05:54.805Z,64.2143
2023-04-09T02:06:54.845Z,64.2143
2023-04-09T02:07:54.866Z,64.3571
2023-04-09T02:08:54.901Z,64.3571
2023-04-09T02:09:54.947Z,64.3571
2023-04-09T02:10:54.988Z,64.5
2023-04-09T02:11:55.015Z,64.7143
2023-04-09T02:12:55.052Z,64.7857
2023-04-09T02:13:55.096Z,64.9286
2023-04-09T02:14:55.131Z,64.9286
2023-04-09T02:15:55.174Z,64.9286
2023-04-09T02:16:55.212Z,65
2023-04-09T02:17:55.275Z,64.7857
2023-04-09T02:18:55.288Z,64.7143
2023-04-09T02:19:55.328Z,64.5714
2023-04-09T02:20:55.368Z,64.5
2023-04-09T02:21:55.408Z,64.3571
2023-04-09T02:22:55.453Z,64.4286
2023-04-09T02:23:55.496Z,64.3571
2023-04-09T02:24:55.540Z,64.3571
2023-04-09T02:25:55.561Z,64.2143
2023-04-09T02:26:55.597Z,64.2143
2023-04-09T02:27:55.630Z,64.1429
2023-04-09T02:28:55.671Z,64.0714
2023-04-09T02:29:55.713Z,64.1429
2023-04-09T02:30:55.753Z,64.1429
2023-04-09T02:31:55.792Z,64.1429
2023-04-09T02:32:55.848Z,64.1429
2023-04-09T02:33:55.866Z,64.1429
2023-04-09T02:34:55.900Z,64.0714
2023-04-09T02:35:55.971Z,64.0714
2023-04-09T02:36:55.980Z,64.1429
2023-04-09T02:37:56.017Z,64.0714
2023-04-09T02:38:56.065Z,64.0714
2023-04-09T02:39:56.094Z,64.1429
2023-04-09T02:40:56.132Z,64.0714
2023-04-09T02:41:56.259Z,64.1429
2023-04-09T02:42:56.253Z,64.1429
2023-04-09T02:43:56.253Z,64.0714
2023-04-09T02:44:56.285Z,64.0714
2023-04-09T02:45:56.369Z,64.1429
2023-04-09T02:46:56.384Z,64.0714
2023-04-09T02:47:56.457Z,64.0714
2023-04-09T02:48:56.459Z,64
2023-04-09T02:49:56.499Z,63.7857
2023-04-09T02:50:56.531Z,63.7143
2023-04-09T02:51:56.606Z,63.7857
2023-04-09T02:52:56.633Z,63.6429
2023-04-09T02:53:56.661Z,63.7857
2023-04-09T02:54:56.708Z,63.7857
2023-04-09T02:55:56.745Z,63.7857
2023-04-09T02:56:56.771Z,63.8571
2023-04-09T02:57:56.811Z,63.9286
2023-04-09T02:58:56.857Z,64
2023-04-09T02:59:56.885Z,63.9286
2023-04-09T03:00:56.941Z,64
2023-04-09T03:01:57.046Z,63.9286
2023-04-09T03:02:57.106Z,63.9286
2023-04-09T03:03:57.148Z,63.8571
2023-04-09T03:04:57.107Z,64
2023-04-09T03:05:57.133Z,64.0714
2023-04-09T03:06:57.181Z,64.2143
2023-04-09T03:07:57.219Z,64.1429
2023-04-09T03:08:57.268Z,64
2023-04-09T03:09:57.309Z,64
2023-04-09T03:10:57.360Z,64.0714
2023-04-09T03:11:57.412Z,64.1429
2023-04-09T03:12:57.429Z,64.2143
2023-04-09T03:13:57.499Z,64.2143
2023-04-09T03:14:57.547Z,64.2143
2023-04-09T03:15:57.606Z,64.3571
2023-04-09T03:16:57.591Z,64.4286
2023-04-09T03:17:57.734Z,64.5714
2023-04-09T03:18:57.682Z,64.7143
2023-04-09T03:19:57.740Z,64.9286
2023-04-09T03:20:57.755Z,64.9286
2023-04-09T03:21:57.794Z,64.9286
2023-04-09T03:22:57.837Z,64.9286
2023-04-09T03:23:57.871Z,64.7143
2023-04-09T03:24:57.905Z,64.6429
2023-04-09T03:25:57.961Z,64.5714
2023-04-09T03:26:57.994Z,64.5714
2023-04-09T03:27:58.037Z,64.5714
2023-04-09T03:28:58.072Z,64.6429
2023-04-09T03:29:58.107Z,64.6429
2023-04-09T03:30:58.218Z,64.5714
2023-04-09T03:31:58.190Z,64.5714
2023-04-09T03:32:58.277Z,64.5
2023-04-09T03:33:58.274Z,64.2857
2023-04-09T03:34:58.320Z,64.1429
2023-04-09T03:35:58.390Z,64.2143
2023-04-09T03:36:58.390Z,64.2143
2023-04-09T03:37:58.429Z,64.2857
2023-04-09T03:38:58.458Z,64.3571
2023-04-09T03:39:58.503Z,64.4286
2023-04-09T03:40:58.542Z,64.5714
2023-04-09T03:41:58.597Z,64.7143
2023-04-09T03:42:58.617Z,64.8571
2023-04-09T03:43:58.665Z,64.9286
2023-04-09T03:44:58.686Z,64.9286
2023-04-09T03:45:58.750Z,65.0714
2023-04-09T03:46:58.822Z,65.2143
2023-04-09T03:47:58.817Z,65.5
2023-04-09T03:48:58.845Z,65.6429
2023-04-09T03:49:58.873Z,65.6429
2023-04-09T03:50:58.912Z,65.7143
2023-04-09T03:51:58.950Z,65.7143
2023-04-09T03:52:58.988Z,65.7857
2023-04-09T03:53:59.032Z,66.1429
2023-04-09T03:54:59.062Z,66.5714
2023-04-09T03:55:59.110Z,66.9286
2023-04-09T03:56:59.145Z,67.2857
2023-04-09T03:57:59.186Z,67.5714
2023-04-09T03:58:59.229Z,67.8571
2023-04-09T03:59:59.277Z,68.0714
2023-04-09T04:00:59.309Z,68.2143
2023-04-09T04:01:59.402Z,68.2857
2023-04-09T04:02:59.687Z,68.2857
2023-04-09T04:03:59.461Z,68.2857
2023-04-09T04:04:59.446Z,68.2857
2023-04-09T04:05:59.490Z,68.2857
2023-04-09T04:06:59.520Z,68.2143
2023-04-09T04:07:59.566Z,68.1429
2023-04-09T04:08:59.588Z,68.1429
2023-04-09T04:09:59.624Z,68.1429
2023-04-09T04:10:59.672Z,68.1429
2023-04-09T04:11:59.725Z,68.1429
2023-04-09T04:12:59.765Z,68.1429
2023-04-09T04:13:59.787Z,68.0714
2023-04-09T04:14:59.824Z,68.0714
2023-04-09T04:15:59.892Z,68.0714
2023-04-09T04:16:59.906Z,68
2023-04-09T04:17:59.948Z,68
2023-04-09T04:18:59.978Z,68
2023-04-09T04:20:00.016Z,68.0714
2023-04-09T04:21:00.064Z,68.1429
2023-04-09T04:22:00.135Z,68.2143
2023-04-09T04:23:00.125Z,68.2143
2023-04-09T04:24:00.155Z,68.2857
2023-04-09T04:25:00.222Z,68.4286
2023-04-09T04:26:00.248Z,68.5
2023-04-09T04:27:00.277Z,68.5714
2023-04-09T04:28:00.340Z,68.6429
2023-04-09T04:29:00.366Z,68.7143
2023-04-09T04:30:00.476Z,68.7857
2023-04-09T04:31:00.437Z,68.9286
2023-04-09T04:32:00.664Z,69.0714
2023-04-09T04:33:00.543Z,69.1429
2023-04-09T04:34:00.548Z,69.2143
2023-04-09T04:35:00.580Z,69.3571
2023-04-09T04:36:00.655Z,69.3571
2023-04-09T04:37:00.674Z,69.4286
2023-04-09T04:38:00.706Z,69.5
2023-04-09T04:39:00.749Z,69.7143
2023-04-09T04:40:00.786Z,69.8571
2023-04-09T04:41:00.815Z,70.1429
2023-04-09T04:42:00.871Z,70.2857
2023-04-09T04:43:00.912Z,70.4286
2023-04-09T04:44:00.944Z,70.5714
2023-04-09T04:45:00.979Z,70.7857
2023-04-09T04:46:01.089Z,70.9286
2023-04-09T04:47:01.059Z,71.0714
2023-04-09T04:48:01.118Z,71.2143
2023-04-09T04:49:01.171Z,71.3571
2023-04-09T04:50:01.167Z,71.5714
2023-04-09T04:51:01.226Z,71.7143
2023-04-09T04:52:01.262Z,71.7857
2023-04-09T04:53:01.287Z,71.9286
2023-04-09T04:54:01.335Z,72
2023-04-09T04:55:01.369Z,72.1429
2023-04-09T04:56:01.412Z,72.2143
2023-04-09T04:57:01.448Z,72.2857
2023-04-09T04:58:01.474Z,72.3571
2023-04-09T04:59:01.507Z,72.3571
2023-04-09T05:00:01.553Z,72.5
2023-04-09T05:01:01.620Z,72.5714
2023-04-09T05:02:01.677Z,72.7143
2023-04-09T05:03:01.746Z,72.6429
2023-04-09T05:04:01.742Z,72.7143
2023-04-09T05:05:01.738Z,72.7857
2023-04-09T05:06:01.764Z,72.8571
2023-04-09T05:07:01.808Z,72.9286
2023-04-09T05:08:01.857Z,73
2023-04-09T05:09:01.906Z,73
2023-04-09T05:10:01.927Z,73.0714
2023-04-09T05:11:01.994Z,73.0714
2023-04-09T05:12:02.004Z,73.0714
2023-04-09T05:13:02.049Z,73.1429
2023-04-09T05:14:02.100Z,73.2857
2023-04-09T05:15:02.195Z,73.2857
2023-04-09T05:16:02.173Z,73.3571
2023-04-09T05:17:02.235Z,73.3571
2023-04-09T05:18:02.251Z,73.5
2023-04-09T05:19:02.279Z,73.5
2023-04-09T05:20:02.328Z,73.4286
2023-04-09T05:21:02.361Z,73.4286
2023-04-09T05:22:02.399Z,73.4286
2023-04-09T05:23:02.447Z,73.4286
2023-04-09T05:24:02.464Z,73.4286
2023-04-09T05:25:02.497Z,73.5714
2023-04-09T05:26:02.533Z,73.5714
2023-04-09T05:27:02.565Z,73.6429
2023-04-09T05:28:02.604Z,73.7143
2023-04-09T05:29:02.657Z,73.7857
2023-04-09T05:30:02.687Z,73.7857
2023-04-09T05:31:02.741Z,73.7143
2023-04-09T05:32:02.768Z,73.7857
2023-04-09T05:33:02.798Z,73.7143
2023-04-09T05:34:02.842Z,73.6429
2023-04-09T05:35:02.891Z,73.7143
2023-04-09T05:36:02.980Z,73.6429
2023-04-09T05:37:02.961Z,73.4286
2023-04-09T05:38:02.995Z,73.3571
2023-04-09T05:39:03.082Z,73.1429
2023-04-09T05:41:03.105Z,72.7143
2023-04-09T05:42:03.156Z,72.7143
2023-04-09T05:43:03.186Z,72.5714
2023-04-09T05:44:03.216Z,72.7143
2023-04-09T05:45:03.267Z,72.9286
2023-04-09T05:46:03.320Z,73.0714
2023-04-09T05:47:03.427Z,73.0714
2023-04-09T05:48:03.407Z,73.0714
2023-04-09T05:49:03.409Z,73.1429
2023-04-09T05:50:03.471Z,73.2143
2023-04-09T05:51:03.516Z,73.0714
2023-04-09T05:52:03.535Z,72.8571
2023-04-09T05:53:03.575Z,72.7857
2023-04-09T05:54:03.593Z,72.6429
2023-04-09T05:55:03.671Z,72.7857
2023-04-09T05:56:03.703Z,73.0714
2023-04-09T05:57:03.722Z,73.2857
2023-04-09T05:58:03.752Z,73.3571
2023-04-09T05:59:03.787Z,73.5
2023-04-09T06:00:03.820Z,73.5714
2023-04-09T06:01:03.854Z,73.3571
2023-04-09T06:02:03.935Z,73.2857
2023-04-09T06:03:04.022Z,73.2857
2023-04-09T06:04:04.651Z,73.3571
2023-04-09T06:05:03.996Z,73.4286
2023-04-09T06:06:04.060Z,73.6429
2023-04-09T06:07:04.179Z,73.7143
2023-04-09T06:08:04.116Z,73.7857
2023-04-09T06:09:04.161Z,73.7857
2023-04-09T06:10:04.199Z,73.8571
2023-04-09T06:11:04.231Z,73.8571
2023-04-09T06:12:04.262Z,73.8571
2023-04-09T06:13:04.298Z,73.7857
2023-04-09T06:14:04.336Z,73.7143
2023-04-09T06:15:04.376Z,73.5714
2023-04-09T06:16:04.434Z,73.6429
2023-04-09T06:17:04.453Z,73.6429
2023-04-09T06:18:04.540Z,73.6429
2023-04-09T06:19:04.518Z,73.7143
2023-04-09T06:20:04.560Z,73.6429
2023-04-09T06:21:04.598Z,73.6429
2023-04-09T06:22:04.632Z,73.5714
2023-04-09T06:23:04.683Z,73.4286
2023-04-09T06:24:04.717Z,73.3571
2023-04-09T06:25:04.749Z,73.3571
2023-04-09T06:26:04.797Z,73.2857
2023-04-09T06:27:04.827Z,73.2143
2023-04-09T06:28:04.872Z,73.2857
2023-04-09T06:29:04.969Z,73.1429
2023-04-09T06:30:04.953Z,73.0714
2023-04-09T06:31:05.039Z,73
2023-04-09T06:32:05.018Z,73
2023-04-09T06:33:05.154Z,72.9286
2023-04-09T06:34:05.096Z,72.7857
2023-04-09T06:35:05.167Z,72.7857
2023-04-09T06:36:05.217Z,72.7857
2023-04-09T06:37:05.211Z,72.7143
2023-04-09T06:38:05.240Z,72.6429
2023-04-09T06:39:05.277Z,72.5
2023-04-09T06:40:05.329Z,72.2857
2023-04-09T06:41:05.352Z,71.9286
2023-04-09T06:42:05.392Z,71.8571
2023-04-09T06:43:05.425Z,71.7857
2023-04-09T06:44:05.459Z,71.6429
2023-04-09T06:45:05.515Z,71.5
2023-04-09T06:46:05.575Z,71.4286
2023-04-09T06:47:05.585Z,71.4286
2023-04-09T06:48:05.635Z,71.2857
2023-04-09T06:49:05.659Z,71.2143
2023-04-09T06:50:05.701Z,70.9286
2023-04-09T06:51:05.724Z,70.7857
2023-04-09T06:52:05.766Z,70.7857
2023-04-09T06:53:05.804Z,70.8571
2023-04-09T06:54:05.833Z,70.8571
2023-04-09T06:55:05.885Z,70.8571
2023-04-09T06:56:06.174Z,71.0714
2023-04-09T06:57:05.960Z,70.8571
2023-04-09T06:58:05.991Z,70.8571
2023-04-09T06:59:06.029Z,70.8571
2023-04-09T07:00:06.073Z,70.7143
2023-04-09T07:01:06.115Z,70.5
2023-04-09T07:02:06.291Z,70.2143
2023-04-09T07:03:06.275Z,70.2143
2023-04-09T07:04:06.252Z,70.1429
2023-04-09T07:05:06.257Z,70.1429
2023-04-09T07:06:06.315Z,70.0714
2023-04-09T07:07:06.337Z,69.9286
2023-04-09T07:08:06.369Z,69.8571
2023-04-09T07:09:06.408Z,69.9286
2023-04-09T07:10:06.494Z,69.7143
2023-04-09T07:11:06.477Z,69.5
2023-04-09T07:12:06.530Z,69.2857
2023-04-09T07:13:06.561Z,69.0714
2023-04-09T07:14:06.594Z,68.9286
2023-04-09T07:15:06.662Z,68.9286
2023-04-09T07:16:06.713Z,68.8571
2023-04-09T07:17:06.717Z,68.8571
2023-04-09T07:18:06.799Z,68.7143
2023-04-09T07:19:06.795Z,68.7143
2023-04-09T07:20:06.835Z,68.5714
2023-04-09T07:21:06.871Z,68.5
2023-04-09T07:22:06.902Z,68.5
2023-04-09T07:23:06.946Z,68.4286
2023-04-09T07:24:06.976Z,68.2857
2023-04-09T07:25:07.018Z,68.2143
2023-04-09T07:26:07.065Z,68.0714
2023-04-09T07:27:07.084Z,68.1429
2023-04-09T07:28:07.126Z,68.0714
2023-04-09T07:29:07.226Z,67.8571
2023-04-09T07:30:07.217Z,67.7143
2023-04-09T07:31:07.288Z,67.7143
2023-04-09T07:32:07.277Z,67.5714
2023-04-09T07:33:07.359Z,67.5
2023-04-09T07:34:07.352Z,67.6429
2023-04-09T07:35:07.394Z,67.7143
2023-04-09T07:36:07.448Z,67.7857
2023-04-09T07:37:07.470Z,67.7857
2023-04-09T07:38:07.507Z,67.7143
2023-04-09T07:39:07.561Z,67.7143
2023-04-09T07:40:07.583Z,67.7143
2023-04-09T07:41:07.619Z,67.7143
2023-04-09T07:42:07.656Z,67.7143
2023-04-09T07:43:07.701Z,67.6429
2023-04-09T07:44:07.731Z,67.5
2023-04-09T07:45:07.771Z,67.4286
2023-04-09T07:46:07.812Z,67.4286
2023-04-09T07:47:07.881Z,67.1429
2023-04-09T07:48:07.880Z,66.7857
2023-04-09T07:49:07.932Z,66.9286
2023-04-09T07:50:07.959Z,67.1429
2023-04-09T07:51:07.997Z,67.0714
2023-04-09T07:52:08.065Z,66.9286
2023-04-09T07:53:08.074Z,67
2023-04-09T07:54:08.115Z,66.6429
2023-04-09T07:55:08.146Z,66.5714
2023-04-09T07:56:08.183Z,66.5
2023-04-09T07:57:08.232Z,66.4286
2023-04-09T07:58:08.273Z,66.2857
2023-04-09T07:59:08.317Z,66.2143
2023-04-09T08:00:08.355Z,66.2143
2023-04-09T08:01:08.401Z,66.1429
2023-04-09T08:02:08.607Z,65.8571
2023-04-09T08:03:08.683Z,65.5
2023-04-09T08:04:08.642Z,65.3571
2023-04-09T08:05:08.595Z,65.3571
2023-04-09T08:06:08.588Z,65
2023-04-09T08:07:08.615Z,64.7143
2023-04-09T08:08:08.650Z,64.8571
2023-04-09T08:09:08.681Z,64.7143
2023-04-09T08:10:08.718Z,64.5714
2023-04-09T08:11:08.762Z,64.4286
2023-04-09T08:12:08.818Z,64.3571
2023-04-09T08:13:10.163Z,64.4286
2023-04-09T08:14:08.872Z,64.3571
2023-04-09T08:15:08.909Z,63.9286
2023-04-09T08:16:08.945Z,63.5714
2023-04-09T08:17:08.993Z,63.4286
2023-04-09T08:18:09.050Z,63.7857
2023-04-09T08:19:09.044Z,63.9286
2023-04-09T08:20:09.090Z,64.0714
2023-04-09T08:21:09.128Z,64.1429
2023-04-09T08:22:09.169Z,64.0714
2023-04-09T08:23:09.214Z,63.9286
2023-04-09T08:24:09.246Z,63.9286
2023-04-09T08:25:09.276Z,64
2023-04-09T08:26:09.319Z,64.1429
2023-04-09T08:27:09.352Z,64.0714
2023-04-09T08:28:09.384Z,64.0714
2023-04-09T08:29:09.437Z,64.1429
2023-04-09T08:30:09.475Z,64.2143
2023-04-09T08:31:09.494Z,64.2857
2023-04-09T08:32:09.638Z,64.1429
2023-04-09T08:33:09.721Z,64
2023-04-09T08:34:09.607Z,64.1429
2023-04-09T08:35:09.647Z,64.0714
2023-04-09T08:36:09.722Z,64.1429
2023-04-09T08:37:09.725Z,64.1429
2023-04-09T08:38:09.749Z,63.9286
2023-04-09T08:39:09.783Z,63.7143
2023-04-09T08:40:09.828Z,63.5714
2023-04-09T08:41:09.852Z,63.5
2023-04-09T08:42:09.898Z,63.4286
2023-04-09T08:43:09.942Z,63.3571
2023-04-09T08:44:09.968Z,63.3571
2023-04-09T08:45:10.008Z,63.3571
2023-04-09T08:46:10.089Z,63.3571
2023-04-09T08:47:10.094Z,63.2857
2023-04-09T08:48:10.187Z,62.9286
2023-04-09T08:49:10.162Z,62.6429
2023-04-09T08:50:10.191Z,62.4286
2023-04-09T08:51:10.239Z,62.3571
2023-04-09T08:52:10.278Z,62.2143
2023-04-09T08:53:10.299Z,62.2143
2023-04-09T08:54:10.352Z,62.0714
2023-04-09T08:55:10.431Z,62.1429
2023-04-09T08:56:10.469Z,62
2023-04-09T08:57:10.453Z,61.8571
2023-04-09T08:58:10.495Z,61.4286
2023-04-09T08:59:10.538Z,61.3571
2023-04-09T09:00:10.585Z,61.2857
2023-04-09T09:01:12.385Z,60.9286
2023-04-09T09:02:10.746Z,60.8571
2023-04-09T09:03:10.844Z,60.7143
2023-04-09T09:04:10.808Z,60.7857
2023-04-09T09:05:10.759Z,60.4286
2023-04-09T09:06:10.806Z,60.8571
2023-04-09T09:07:10.834Z,61
2023-04-09T09:08:10.874Z,61.2857
2023-04-09T09:09:10.917Z,61.1429
2023-04-09T09:10:10.953Z,60.9286
2023-04-09T09:11:11.012Z,61.0714
2023-04-09T09:12:11.013Z,60.4286
2023-04-09T09:13:11.046Z,60.4286
2023-04-09T09:14:11.079Z,60.0714
2023-04-09T09:15:11.130Z,59.9286
2023-04-09T09:16:11.172Z,60
2023-04-09T09:17:11.322Z,60.2857
2023-04-09T09:18:11.240Z,60.7857
2023-04-09T09:19:11.269Z,61.0714
2023-04-09T09:20:11.316Z,61.1429
2023-04-09T09:21:11.355Z,60.9286
2023-04-09T09:22:11.385Z,61.1429
2023-04-09T09:23:11.429Z,61.0714
2023-04-09T09:24:11.467Z,60.7143
2023-04-09T09:25:11.509Z,60.7143
2023-04-09T09:26:11.550Z,60.2143
2023-04-09T09:27:11.575Z,60.2857
2023-04-09T09:28:11.617Z,60.2857
2023-04-09T09:29:11.653Z,60.2143
2023-04-09T09:30:11.681Z,60.0714
2023-04-09T09:31:11.809Z,59.7857
2023-04-09T09:32:11.747Z,59.6429
2023-04-09T09:33:11.799Z,59.7143
2023-04-09T09:34:11.833Z,59.5714
2023-04-09T09:35:11.864Z,59.1429
2023-04-09T09:36:11.920Z,59.1429
2023-04-09T09:37:11.944Z,59.0714
2023-04-09T09:38:11.982Z,59
2023-04-09T09:39:12.059Z,58.7143
2023-04-09T09:40:12.057Z,58.5
2023-04-09T09:41:12.115Z,58.4286
2023-04-09T09:42:12.135Z,58.3571
2023-04-09T09:43:13.492Z,58.2143
2023-04-09T09:44:12.203Z,58.2143
2023-04-09T09:45:12.243Z,57.9286
2023-04-09T09:46:12.350Z,56.9286
2023-04-09T09:47:12.316Z,56.8571
2023-04-09T09:48:12.355Z,56.8571
2023-04-09T09:49:12.399Z,57.5
2023-04-09T09:50:12.438Z,57.5
2023-04-09T09:51:12.484Z,57.5
2023-04-09T09:52:12.534Z,57.3571
2023-04-09T09:53:12.555Z,57
2023-04-09T09:54:12.581Z,57
2023-04-09T09:55:12.621Z,57
2023-04-09T09:56:12.663Z,56.7857
2023-04-09T09:57:12.706Z,56.7857
2023-04-09T09:58:12.763Z,56.4286
2023-04-09T09:59:12.797Z,56.2857
2023-04-09T10:00:12.828Z,56.0714
2023-04-09T10:01:12.936Z,55.5
2023-04-09T10:02:13.184Z,55
2023-04-09T10:03:12.958Z,54.7857
2023-04-09T10:04:12.976Z,54.6429
2023-04-09T10:05:13.027Z,55.0714
2023-04-09T10:06:13.051Z,54.7857
2023-04-09T10:07:13.075Z,54.2857
2023-04-09T10:08:13.108Z,54.2857
2023-04-09T10:09:13.139Z,54.5
2023-04-09T10:10:13.177Z,54.5
2023-04-09T10:11:13.225Z,54.2143
2023-04-09T10:12:13.252Z,54.2857
2023-04-09T10:13:13.289Z,54.0714
2023-04-09T10:14:13.328Z,54.5
2023-04-09T10:15:13.359Z,54.7857
2023-04-09T10:16:13.528Z,54.1429
2023-04-09T10:17:13.456Z,54
2023-04-09T10:18:13.471Z,53.5714
2023-04-09T10:19:13.520Z,54
2023-04-09T10:20:13.563Z,54.8571
2023-04-09T10:21:13.589Z,55.1429
2023-04-09T10:22:13.648Z,55.2857
2023-04-09T10:23:13.672Z,55.5714
2023-04-09T10:24:13.730Z,55.5
2023-04-09T10:25:13.797Z,55.0714
2023-04-09T10:26:13.801Z,55.4286
2023-04-09T10:27:15.940Z,55.7857
2023-04-09T10:28:13.880Z,56
2023-04-09T10:29:13.928Z,55.9286
2023-04-09T10:30:13.999Z,55.6429
2023-04-09T10:31:14.077Z,55.0714
2023-04-09T10:32:14.031Z,55.4286
2023-04-09T10:33:14.066Z,55.7857
2023-04-09T10:34:14.102Z,55.8571
2023-04-09T10:35:14.129Z,55.6429
2023-04-09T10:36:14.274Z,55.0714
2023-04-09T10:37:14.241Z,54.9286
2023-04-09T10:38:14.238Z,55.1429
2023-04-09T10:39:14.283Z,55.0714
2023-04-09T10:40:14.358Z,55.3571
2023-04-09T10:41:14.356Z,56
2023-04-09T10:42:14.396Z,56.1429
2023-04-09T10:43:14.430Z,56
2023-04-09T10:44:14.463Z,56.2857
2023-04-09T10:45:14.791Z,56
2023-04-09T10:46:14.560Z,55.7857
2023-04-09T10:47:14.580Z,55.8571
2023-04-09T10:48:14.636Z,56.0714
2023-04-09T10:49:14.655Z,55.3571
2023-04-09T10:50:14.688Z,55.4286
2023-04-09T10:51:14.729Z,55.8571
2023-04-09T10:52:14.780Z,56.1429
2023-04-09T10:53:14.809Z,56.0714
2023-04-09T10:54:14.843Z,56
2023-04-09T10:55:14.886Z,55.5714
2023-04-09T10:56:14.920Z,55.5714
2023-04-09T10:57:14.995Z,56
2023-04-09T10:58:15.004Z,57.0714
2023-04-09T10:59:15.037Z,57.2857
2023-04-09T11:00:15.068Z,56.6429
2023-04-09T11:01:15.136Z,56.5
2023-04-09T11:02:15.214Z,56.1429
2023-04-09T11:03:15.269Z,55.3571
2023-04-09T11:04:15.236Z,55.3571
2023-04-09T11:05:15.264Z,55.5714
2023-04-09T11:06:15.302Z,55.2857
2023-04-09T11:07:15.333Z,54.8571
2023-04-09T11:08:15.380Z,54.7143
2023-04-09T11:09:15.409Z,55.0714
2023-04-09T11:10:15.462Z,55.7857
2023-04-09T11:11:15.498Z,56.8571
2023-04-09T11:12:15.527Z,56.8571
2023-04-09T11:13:15.556Z,57.0714
2023-04-09T11:14:15.621Z,56.7857
2023-04-09T11:15:15.632Z,56.5714
2023-04-09T11:16:22.965Z,55.7857
2023-04-09T11:17:15.721Z,56.3571
2023-04-09T11:18:15.743Z,56.2857
2023-04-09T11:19:15.783Z,56
2023-04-09T11:20:15.847Z,56.0714
2023-04-09T11:21:15.863Z,55.8571
2023-04-09T11:22:15.905Z,55.6429
2023-04-09T11:23:15.956Z,56.1429
2023-04-09T11:24:15.984Z,55.7857
2023-04-09T11:25:16.019Z,55.5714
2023-04-09T11:26:16.062Z,55.5714
2023-04-09T11:27:16.098Z,55.1429
2023-04-09T11:28:16.135Z,55.5714
2023-04-09T11:29:16.172Z,56.0714
2023-04-09T11:30:16.214Z,55.9286
2023-04-09T11:31:16.342Z,56.3571
2023-04-09T11:32:16.295Z,56.0714
2023-04-09T11:33:19.160Z,56.3571
2023-04-09T11:34:16.374Z,56.3571
2023-04-09T11:35:16.410Z,56.7857
2023-04-09T11:36:16.542Z,56.6429
2023-04-09T11:37:16.480Z,56.3571
2023-04-09T11:38:16.663Z,56.7857
2023-04-09T11:39:16.550Z,57.3571
2023-04-09T11:40:16.596Z,57.2857
2023-04-09T11:41:16.638Z,57.1429
2023-04-09T11:42:16.706Z,57.1429
2023-04-09T11:43:16.918Z,57.2857
2023-04-09T11:44:16.736Z,57.4286
2023-04-09T11:45:16.781Z,56.8571
2023-04-09T11:46:16.843Z,56.4286
2023-04-09T11:47:16.855Z,56.4286
2023-04-09T11:48:16.894Z,56.6429
2023-04-09T11:49:16.939Z,57.1429
2023-04-09T11:50:16.981Z,57.4286
2023-04-09T11:51:17.053Z,56.8571
2023-04-09T11:53:17.102Z,56.6429
2023-04-09T11:54:17.122Z,56.3571
2023-04-09T11:55:17.171Z,56.3571
2023-04-09T11:56:17.216Z,56.5714
2023-04-09T11:57:17.243Z,56.7143
2023-04-09T11:58:17.312Z,56.7857
2023-04-09T11:59:17.324Z,57.0714
2023-04-09T12:00:17.374Z,57.0714
2023-04-09T12:01:17.390Z,57.5
2023-04-09T12:02:17.558Z,57
2023-04-09T12:03:17.748Z,56.7143
2023-04-09T12:04:17.676Z,56.7143
2023-04-09T12:05:17.569Z,56.7857
2023-04-09T12:06:17.594Z,57.5
2023-04-09T12:07:17.636Z,57.5714
2023-04-09T12:08:17.667Z,57.9286
2023-04-09T12:09:17.711Z,57.7857
2023-04-09T12:10:17.752Z,57.5
2023-04-09T12:11:17.790Z,57.5
2023-04-09T12:12:17.831Z,57.1429
2023-04-09T12:13:17.886Z,57.3571
2023-04-09T12:14:17.913Z,57.5
2023-04-09T12:15:17.950Z,57.7857
2023-04-09T12:16:18.006Z,57.8571
2023-04-09T12:17:18.024Z,57.3571
2023-04-09T12:18:18.069Z,55.7857
2023-04-09T12:19:18.107Z,54.7857
2023-04-09T12:20:18.143Z,54.0714